sensor_id;sensor_type;location;lat;lon;timestamp;P1;durP1;ratioP1;P2;durP2;ratioP2
19149;SDS011;9707;49.158;8.632;2023-04-15T00:01:52;8.07;;;2.83;;
19149;SDS011;9707;49.158;8.632;2023-04-15T00:04:17;5.90;;;2.65;;
19149;SDS011;9707;49.158;8.632;2023-04-15T00:06:48;5.50;;;2.60;;
19149;SDS011;9707;49.158;8.632;2023-04-15T00:09:15;3.85;;;2.42;;
19149;SDS011;9707;49.158;8.632;2023-04-15T00:11:40;5.00;;;2.70;;
19149;SDS011;9707;49.158;8.632;2023-04-15T00:14:06;4.38;;;2.92;;
19149;SDS011;9707;49.158;8.632;2023-04-15T00:16:31;4.88;;;2.30;;
19149;SDS011;9707;49.158;8.632;2023-04-15T00:18:56;4.38;;;2.60;;
19149;SDS011;9707;49.158;8.632;2023-04-15T00:21:22;4.63;;;2.80;;
19149;SDS011;9707;49.158;8.632;2023-04-15T00:23:47;5.18;;;2.13;;
19149;SDS011;9707;49.158;8.632;2023-04-15T00:26:16;4.00;;;1.88;;
19149;SDS011;9707;49.158;8.632;2023-04-15T00:28:43;7.50;;;2.80;;
19149;SDS011;9707;49.158;8.632;2023-04-15T00:31:08;6.22;;;2.20;;
19149;SDS011;9707;49.158;8.632;2023-04-15T00:33:34;4.05;;;2.13;;
19149;SDS011;9707;49.158;8.632;2023-04-15T00:36:00;3.72;;;1.98;;
19149;SDS011;9707;49.158;8.632;2023-04-15T00:38:26;3.97;;;1.90;;
19149;SDS011;9707;49.158;8.632;2023-04-15T00:40:52;6.95;;;2.63;;
19149;SDS011;9707;49.158;8.632;2023-04-15T00:43:17;3.78;;;2.08;;
19149;SDS011;9707;49.158;8.632;2023-04-15T00:45:43;3.95;;;2.20;;
19149;SDS011;9707;49.158;8.632;2023-04-15T00:48:08;3.90;;;2.03;;
19149;SDS011;9707;49.158;8.632;2023-04-15T00:50:35;4.57;;;2.25;;
19149;SDS011;9707;49.158;8.632;2023-04-15T00:53:03;6.35;;;2.33;;
19149;SDS011;9707;49.158;8.632;2023-04-15T00:55:28;5.75;;;1.77;;
19149;SDS011;9707;49.158;8.632;2023-04-15T00:57:54;3.55;;;1.88;;
19149;SDS011;9707;49.158;8.632;2023-04-15T01:00:20;3.40;;;1.60;;
19149;SDS011;9707;49.158;8.632;2023-04-15T01:02:46;3.17;;;2.13;;
19149;SDS011;9707;49.158;8.632;2023-04-15T01:05:12;3.22;;;2.20;;
19149;SDS011;9707;49.158;8.632;2023-04-15T01:07:37;4.22;;;1.80;;
19149;SDS011;9707;49.158;8.632;2023-04-15T01:10:03;3.35;;;1.80;;
19149;SDS011;9707;49.158;8.632;2023-04-15T01:12:28;3.50;;;1.70;;
19149;SDS011;9707;49.158;8.632;2023-04-15T01:14:56;4.05;;;2.30;;
19149;SDS011;9707;49.158;8.632;2023-04-15T01:17:23;3.20;;;2.15;;
19149;SDS011;9707;49.158;8.632;2023-04-15T01:19:49;3.30;;;1.95;;
19149;SDS011;9707;49.158;8.632;2023-04-15T01:22:15;4.88;;;2.08;;
19149;SDS011;9707;49.158;8.632;2023-04-15T01:24:41;5.65;;;2.00;;
19149;SDS011;9707;49.158;8.632;2023-04-15T01:27:13;5.97;;;2.33;;
19149;SDS011;9707;49.158;8.632;2023-04-15T01:29:38;6.35;;;2.40;;
19149;SDS011;9707;49.158;8.632;2023-04-15T01:32:04;3.33;;;1.75;;
19149;SDS011;9707;49.158;8.632;2023-04-15T01:34:29;4.47;;;1.60;;
19149;SDS011;9707;49.158;8.632;2023-04-15T01:36:55;4.28;;;2.20;;
19149;SDS011;9707;49.158;8.632;2023-04-15T01:39:20;4.63;;;2.38;;
19149;SDS011;9707;49.158;8.632;2023-04-15T01:41:46;2.00;;;1.38;;
19149;SDS011;9707;49.158;8.632;2023-04-15T01:44:11;3.90;;;2.30;;
19149;SDS011;9707;49.158;8.632;2023-04-15T01:46:36;2.65;;;1.90;;
19149;SDS011;9707;49.158;8.632;2023-04-15T01:49:01;3.28;;;1.73;;
19149;SDS011;9707;49.158;8.632;2023-04-15T01:51:27;4.75;;;1.90;;
19149;SDS011;9707;49.158;8.632;2023-04-15T01:53:52;3.13;;;1.85;;
19149;SDS011;9707;49.158;8.632;2023-04-15T01:56:20;4.60;;;1.98;;
19149;SDS011;9707;49.158;8.632;2023-04-15T01:58:46;3.05;;;1.70;;
19149;SDS011;9707;49.158;8.632;2023-04-15T02:01:11;4.50;;;2.40;;
19149;SDS011;9707;49.158;8.632;2023-04-15T02:03:37;3.78;;;2.10;;
19149;SDS011;9707;49.158;8.632;2023-04-15T02:06:03;6.03;;;2.45;;
19149;SDS011;9707;49.158;8.632;2023-04-15T02:08:30;3.80;;;2.25;;
19149;SDS011;9707;49.158;8.632;2023-04-15T02:10:55;3.08;;;2.10;;
19149;SDS011;9707;49.158;8.632;2023-04-15T02:13:20;4.40;;;1.83;;
19149;SDS011;9707;49.158;8.632;2023-04-15T02:15:47;3.45;;;2.00;;
19149;SDS011;9707;49.158;8.632;2023-04-15T02:18:12;3.80;;;2.00;;
19149;SDS011;9707;49.158;8.632;2023-04-15T02:20:38;6.35;;;1.90;;
19149;SDS011;9707;49.158;8.632;2023-04-15T02:23:03;3.13;;;1.48;;
19149;SDS011;9707;49.158;8.632;2023-04-15T02:25:31;3.83;;;1.60;;
19149;SDS011;9707;49.158;8.632;2023-04-15T02:27:56;4.75;;;2.20;;
19149;SDS011;9707;49.158;8.632;2023-04-15T02:30:22;4.03;;;1.88;;
19149;SDS011;9707;49.158;8.632;2023-04-15T02:32:47;2.83;;;1.70;;
19149;SDS011;9707;49.158;8.632;2023-04-15T02:35:13;3.17;;;1.63;;
19149;SDS011;9707;49.158;8.632;2023-04-15T02:37:38;3.38;;;1.52;;
19149;SDS011;9707;49.158;8.632;2023-04-15T02:40:09;2.67;;;1.90;;
19149;SDS011;9707;49.158;8.632;2023-04-15T02:42:36;4.43;;;2.10;;
19149;SDS011;9707;49.158;8.632;2023-04-15T02:45:02;4.20;;;1.77;;
19149;SDS011;9707;49.158;8.632;2023-04-15T02:47:28;3.47;;;2.03;;
19149;SDS011;9707;49.158;8.632;2023-04-15T02:49:53;4.03;;;2.20;;
19149;SDS011;9707;49.158;8.632;2023-04-15T02:52:18;3.55;;;2.25;;
19149;SDS011;9707;49.158;8.632;2023-04-15T02:54:43;4.53;;;1.83;;
19149;SDS011;9707;49.158;8.632;2023-04-15T02:57:09;5.28;;;2.08;;
19149;SDS011;9707;49.158;8.632;2023-04-15T02:59:35;2.88;;;1.80;;
19149;SDS011;9707;49.158;8.632;2023-04-15T03:02:01;3.38;;;1.60;;
19149;SDS011;9707;49.158;8.632;2023-04-15T03:04:26;3.80;;;1.67;;
19149;SDS011;9707;49.158;8.632;2023-04-15T03:06:54;2.58;;;1.60;;
19149;SDS011;9707;49.158;8.632;2023-04-15T03:09:19;3.72;;;1.70;;
19149;SDS011;9707;49.158;8.632;2023-04-15T03:11:44;2.40;;;1.67;;
19149;SDS011;9707;49.158;8.632;2023-04-15T03:14:09;4.22;;;2.00;;
19149;SDS011;9707;49.158;8.632;2023-04-15T03:16:35;4.20;;;1.80;;
19149;SDS011;9707;49.158;8.632;2023-04-15T03:19:00;4.38;;;1.70;;
19149;SDS011;9707;49.158;8.632;2023-04-15T03:21:25;2.13;;;1.45;;
19149;SDS011;9707;49.158;8.632;2023-04-15T03:23:51;3.75;;;2.10;;
19149;SDS011;9707;49.158;8.632;2023-04-15T03:26:25;2.60;;;1.58;;
19149;SDS011;9707;49.158;8.632;2023-04-15T03:28:56;3.03;;;1.83;;
19149;SDS011;9707;49.158;8.632;2023-04-15T03:31:22;3.08;;;1.73;;
19149;SDS011;9707;49.158;8.632;2023-04-15T03:33:47;2.80;;;1.88;;
19149;SDS011;9707;49.158;8.632;2023-04-15T03:36:12;2.85;;;1.35;;
19149;SDS011;9707;49.158;8.632;2023-04-15T03:38:38;3.42;;;1.70;;
19149;SDS011;9707;49.158;8.632;2023-04-15T03:41:03;2.80;;;1.70;;
19149;SDS011;9707;49.158;8.632;2023-04-15T03:43:29;3.28;;;1.40;;
19149;SDS011;9707;49.158;8.632;2023-04-15T03:45:54;3.22;;;1.58;;
19149;SDS011;9707;49.158;8.632;2023-04-15T03:48:20;5.15;;;1.70;;
19149;SDS011;9707;49.158;8.632;2023-04-15T03:50:45;3.83;;;2.13;;
19149;SDS011;9707;49.158;8.632;2023-04-15T03:53:11;3.08;;;1.60;;
19149;SDS011;9707;49.158;8.632;2023-04-15T03:55:36;2.72;;;1.73;;
19149;SDS011;9707;49.158;8.632;2023-04-15T03:58:01;2.60;;;1.80;;
19149;SDS011;9707;49.158;8.632;2023-04-15T04:00:27;5.10;;;1.83;;
19149;SDS011;9707;49.158;8.632;2023-04-15T04:02:52;3.50;;;2.17;;
19149;SDS011;9707;49.158;8.632;2023-04-15T04:05:17;4.35;;;1.42;;
19149;SDS011;9707;49.158;8.632;2023-04-15T04:07:43;2.80;;;1.33;;
19149;SDS011;9707;49.158;8.632;2023-04-15T04:10:08;5.03;;;1.55;;
19149;SDS011;9707;49.158;8.632;2023-04-15T04:12:33;3.75;;;1.92;;
19149;SDS011;9707;49.158;8.632;2023-04-15T04:14:59;3.20;;;1.70;;
19149;SDS011;9707;49.158;8.632;2023-04-15T04:17:27;3.88;;;1.77;;
19149;SDS011;9707;49.158;8.632;2023-04-15T04:19:52;2.70;;;1.75;;
19149;SDS011;9707;49.158;8.632;2023-04-15T04:22:20;2.78;;;1.58;;
19149;SDS011;9707;49.158;8.632;2023-04-15T04:24:47;4.68;;;1.70;;
19149;SDS011;9707;49.158;8.632;2023-04-15T04:27:13;3.92;;;1.90;;
19149;SDS011;9707;49.158;8.632;2023-04-15T04:29:38;2.97;;;1.67;;
19149;SDS011;9707;49.158;8.632;2023-04-15T04:32:03;3.60;;;1.88;;
19149;SDS011;9707;49.158;8.632;2023-04-15T04:34:29;2.80;;;1.65;;
19149;SDS011;9707;49.158;8.632;2023-04-15T04:36:54;2.72;;;1.58;;
19149;SDS011;9707;49.158;8.632;2023-04-15T04:39:19;3.72;;;1.85;;
19149;SDS011;9707;49.158;8.632;2023-04-15T04:41:45;3.63;;;1.60;;
19149;SDS011;9707;49.158;8.632;2023-04-15T04:44:10;2.78;;;1.65;;
19149;SDS011;9707;49.158;8.632;2023-04-15T04:46:35;3.95;;;1.90;;
19149;SDS011;9707;49.158;8.632;2023-04-15T04:49:00;2.97;;;1.50;;
19149;SDS011;9707;49.158;8.632;2023-04-15T04:51:26;2.17;;;1.70;;
19149;SDS011;9707;49.158;8.632;2023-04-15T04:53:51;2.78;;;1.75;;
19149;SDS011;9707;49.158;8.632;2023-04-15T04:56:18;4.00;;;1.90;;
19149;SDS011;9707;49.158;8.632;2023-04-15T04:58:43;4.15;;;2.03;;
19149;SDS011;9707;49.158;8.632;2023-04-15T05:01:08;6.35;;;2.10;;
19149;SDS011;9707;49.158;8.632;2023-04-15T05:03:33;3.22;;;1.73;;
19149;SDS011;9707;49.158;8.632;2023-04-15T05:05:59;4.90;;;2.22;;
19149;SDS011;9707;49.158;8.632;2023-04-15T05:08:24;4.65;;;2.22;;
19149;SDS011;9707;49.158;8.632;2023-04-15T05:10:50;5.05;;;2.42;;
19149;SDS011;9707;49.158;8.632;2023-04-15T05:13:15;4.47;;;2.42;;
19149;SDS011;9707;49.158;8.632;2023-04-15T05:15:40;2.58;;;1.77;;
19149;SDS011;9707;49.158;8.632;2023-04-15T05:18:07;2.58;;;1.85;;
19149;SDS011;9707;49.158;8.632;2023-04-15T05:20:32;3.90;;;2.78;;
19149;SDS011;9707;49.158;8.632;2023-04-15T05:22:57;3.38;;;2.05;;
19149;SDS011;9707;49.158;8.632;2023-04-15T05:25:23;4.63;;;2.42;;
19149;SDS011;9707;49.158;8.632;2023-04-15T05:27:48;3.40;;;2.28;;
19149;SDS011;9707;49.158;8.632;2023-04-15T05:30:13;4.43;;;2.00;;
19149;SDS011;9707;49.158;8.632;2023-04-15T05:32:38;5.05;;;2.35;;
19149;SDS011;9707;49.158;8.632;2023-04-15T05:35:04;2.97;;;1.98;;
19149;SDS011;9707;49.158;8.632;2023-04-15T05:37:30;4.43;;;2.17;;
19149;SDS011;9707;49.158;8.632;2023-04-15T05:39:55;4.10;;;2.38;;
19149;SDS011;9707;49.158;8.632;2023-04-15T05:42:21;3.67;;;2.05;;
19149;SDS011;9707;49.158;8.632;2023-04-15T05:44:46;4.30;;;1.88;;
19149;SDS011;9707;49.158;8.632;2023-04-15T05:47:11;4.03;;;2.30;;
19149;SDS011;9707;49.158;8.632;2023-04-15T05:49:36;3.65;;;2.35;;
19149;SDS011;9707;49.158;8.632;2023-04-15T05:52:02;4.80;;;2.63;;
19149;SDS011;9707;49.158;8.632;2023-04-15T05:54:27;3.17;;;2.13;;
19149;SDS011;9707;49.158;8.632;2023-04-15T05:56:52;4.30;;;2.25;;
19149;SDS011;9707;49.158;8.632;2023-04-15T05:59:18;3.92;;;1.98;;
19149;SDS011;9707;49.158;8.632;2023-04-15T06:01:43;4.82;;;2.67;;
19149;SDS011;9707;49.158;8.632;2023-04-15T06:04:09;4.97;;;2.15;;
19149;SDS011;9707;49.158;8.632;2023-04-15T06:06:35;3.45;;;2.17;;
19149;SDS011;9707;49.158;8.632;2023-04-15T06:09:01;6.13;;;2.67;;
19149;SDS011;9707;49.158;8.632;2023-04-15T06:11:26;5.43;;;2.13;;
19149;SDS011;9707;49.158;8.632;2023-04-15T06:13:51;4.05;;;2.47;;
19149;SDS011;9707;49.158;8.632;2023-04-15T06:16:17;3.65;;;2.33;;
19149;SDS011;9707;49.158;8.632;2023-04-15T06:18:42;4.57;;;2.70;;
19149;SDS011;9707;49.158;8.632;2023-04-15T06:21:07;5.28;;;2.65;;
19149;SDS011;9707;49.158;8.632;2023-04-15T06:23:35;4.03;;;2.70;;
19149;SDS011;9707;49.158;8.632;2023-04-15T06:26:01;3.97;;;2.10;;
19149;SDS011;9707;49.158;8.632;2023-04-15T06:28:26;4.10;;;2.00;;
19149;SDS011;9707;49.158;8.632;2023-04-15T06:30:52;3.40;;;2.33;;
19149;SDS011;9707;49.158;8.632;2023-04-15T06:33:18;3.60;;;2.40;;
19149;SDS011;9707;49.158;8.632;2023-04-15T06:35:43;5.10;;;2.30;;
19149;SDS011;9707;49.158;8.632;2023-04-15T06:38:09;5.93;;;2.55;;
19149;SDS011;9707;49.158;8.632;2023-04-15T06:40:34;5.55;;;2.17;;
19149;SDS011;9707;49.158;8.632;2023-04-15T06:42:59;5.35;;;2.83;;
19149;SDS011;9707;49.158;8.632;2023-04-15T06:45:25;6.43;;;3.05;;
19149;SDS011;9707;49.158;8.632;2023-04-15T06:47:50;5.78;;;2.55;;
19149;SDS011;9707;49.158;8.632;2023-04-15T06:50:15;3.25;;;2.80;;
19149;SDS011;9707;49.158;8.632;2023-04-15T06:52:41;5.45;;;2.90;;
19149;SDS011;9707;49.158;8.632;2023-04-15T06:55:06;5.32;;;2.95;;
19149;SDS011;9707;49.158;8.632;2023-04-15T06:57:32;4.28;;;2.08;;
19149;SDS011;9707;49.158;8.632;2023-04-15T06:59:57;6.65;;;2.10;;
19149;SDS011;9707;49.158;8.632;2023-04-15T07:02:22;4.28;;;2.08;;
19149;SDS011;9707;49.158;8.632;2023-04-15T07:04:48;3.33;;;2.13;;
19149;SDS011;9707;49.158;8.632;2023-04-15T07:07:13;6.40;;;2.97;;
19149;SDS011;9707;49.158;8.632;2023-04-15T07:09:39;6.82;;;3.35;;
19149;SDS011;9707;49.158;8.632;2023-04-15T07:12:04;4.03;;;2.70;;
19149;SDS011;9707;49.158;8.632;2023-04-15T07:14:30;3.55;;;2.83;;
19149;SDS011;9707;49.158;8.632;2023-04-15T07:16:55;5.85;;;2.45;;
19149;SDS011;9707;49.158;8.632;2023-04-15T07:19:21;5.63;;;3.38;;
19149;SDS011;9707;49.158;8.632;2023-04-15T07:21:48;9.30;;;3.28;;
19149;SDS011;9707;49.158;8.632;2023-04-15T07:24:13;4.35;;;3.30;;
19149;SDS011;9707;49.158;8.632;2023-04-15T07:26:42;4.38;;;2.90;;
19149;SDS011;9707;49.158;8.632;2023-04-15T07:29:08;5.75;;;3.20;;
19149;SDS011;9707;49.158;8.632;2023-04-15T07:31:33;6.20;;;3.10;;
19149;SDS011;9707;49.158;8.632;2023-04-15T07:34:00;7.53;;;3.63;;
19149;SDS011;9707;49.158;8.632;2023-04-15T07:36:26;5.65;;;3.70;;
19149;SDS011;9707;49.158;8.632;2023-04-15T07:38:53;6.38;;;3.63;;
19149;SDS011;9707;49.158;8.632;2023-04-15T07:41:19;7.28;;;3.47;;
19149;SDS011;9707;49.158;8.632;2023-04-15T07:43:44;5.70;;;3.03;;
19149;SDS011;9707;49.158;8.632;2023-04-15T07:46:10;7.13;;;4.00;;
19149;SDS011;9707;49.158;8.632;2023-04-15T07:48:36;8.65;;;3.83;;
19149;SDS011;9707;49.158;8.632;2023-04-15T07:51:01;5.30;;;2.88;;
19149;SDS011;9707;49.158;8.632;2023-04-15T07:53:27;7.43;;;3.63;;
19149;SDS011;9707;49.158;8.632;2023-04-15T07:55:52;9.35;;;4.47;;
19149;SDS011;9707;49.158;8.632;2023-04-15T07:58:18;5.65;;;3.30;;
19149;SDS011;9707;49.158;8.632;2023-04-15T08:00:43;9.20;;;3.88;;
19149;SDS011;9707;49.158;8.632;2023-04-15T08:03:08;6.55;;;3.95;;
19149;SDS011;9707;49.158;8.632;2023-04-15T08:05:34;7.20;;;2.97;;
19149;SDS011;9707;49.158;8.632;2023-04-15T08:07:59;5.88;;;3.50;;
19149;SDS011;9707;49.158;8.632;2023-04-15T08:10:25;8.43;;;4.30;;
19149;SDS011;9707;49.158;8.632;2023-04-15T08:12:50;6.78;;;3.63;;
19149;SDS011;9707;49.158;8.632;2023-04-15T08:15:18;5.75;;;3.38;;
19149;SDS011;9707;49.158;8.632;2023-04-15T08:17:44;7.60;;;4.35;;
19149;SDS011;9707;49.158;8.632;2023-04-15T08:20:09;5.57;;;3.45;;
19149;SDS011;9707;49.158;8.632;2023-04-15T08:22:34;5.90;;;4.30;;
19149;SDS011;9707;49.158;8.632;2023-04-15T08:25:00;7.32;;;4.30;;
19149;SDS011;9707;49.158;8.632;2023-04-15T08:27:25;7.10;;;4.00;;
19149;SDS011;9707;49.158;8.632;2023-04-15T08:29:50;7.57;;;3.97;;
19149;SDS011;9707;49.158;8.632;2023-04-15T08:32:16;7.25;;;3.40;;
19149;SDS011;9707;49.158;8.632;2023-04-15T08:34:41;7.22;;;3.40;;
19149;SDS011;9707;49.158;8.632;2023-04-15T08:37:06;4.95;;;3.30;;
19149;SDS011;9707;49.158;8.632;2023-04-15T08:39:32;5.68;;;2.97;;
19149;SDS011;9707;49.158;8.632;2023-04-15T08:42:00;5.93;;;3.17;;
19149;SDS011;9707;49.158;8.632;2023-04-15T08:44:32;8.10;;;3.90;;
19149;SDS011;9707;49.158;8.632;2023-04-15T08:47:01;4.45;;;2.80;;
19149;SDS011;9707;49.158;8.632;2023-04-15T08:49:27;7.40;;;4.40;;
19149;SDS011;9707;49.158;8.632;2023-04-15T08:51:53;4.38;;;3.22;;
19149;SDS011;9707;49.158;8.632;2023-04-15T08:54:20;5.47;;;3.08;;
19149;SDS011;9707;49.158;8.632;2023-04-15T08:56:46;6.07;;;3.53;;
19149;SDS011;9707;49.158;8.632;2023-04-15T08:59:12;7.28;;;3.20;;
19149;SDS011;9707;49.158;8.632;2023-04-15T09:01:39;7.18;;;3.47;;
19149;SDS011;9707;49.158;8.632;2023-04-15T09:04:04;6.80;;;3.33;;
19149;SDS011;9707;49.158;8.632;2023-04-15T09:06:32;6.13;;;3.53;;
19149;SDS011;9707;49.158;8.632;2023-04-15T09:08:58;8.32;;;3.33;;
19149;SDS011;9707;49.158;8.632;2023-04-15T09:11:23;5.10;;;2.97;;
19149;SDS011;9707;49.158;8.632;2023-04-15T09:13:49;5.75;;;3.22;;
19149;SDS011;9707;49.158;8.632;2023-04-15T09:16:14;5.72;;;2.65;;
19149;SDS011;9707;49.158;8.632;2023-04-15T09:18:40;7.72;;;3.47;;
19149;SDS011;9707;49.158;8.632;2023-04-15T09:21:09;5.35;;;3.55;;
19149;SDS011;9707;49.158;8.632;2023-04-15T09:23:37;5.93;;;3.13;;
19149;SDS011;9707;49.158;8.632;2023-04-15T09:26:03;9.23;;;3.50;;
19149;SDS011;9707;49.158;8.632;2023-04-15T09:28:29;7.03;;;2.50;;
19149;SDS011;9707;49.158;8.632;2023-04-15T09:30:58;7.10;;;3.42;;
19149;SDS011;9707;49.158;8.632;2023-04-15T09:33:25;6.43;;;2.88;;
19149;SDS011;9707;49.158;8.632;2023-04-15T09:35:56;5.85;;;2.88;;
19149;SDS011;9707;49.158;8.632;2023-04-15T09:38:23;6.60;;;3.40;;
19149;SDS011;9707;49.158;8.632;2023-04-15T09:40:48;5.05;;;3.10;;
19149;SDS011;9707;49.158;8.632;2023-04-15T09:43:13;5.32;;;2.97;;
19149;SDS011;9707;49.158;8.632;2023-04-15T09:45:45;6.78;;;3.35;;
19149;SDS011;9707;49.158;8.632;2023-04-15T09:48:22;6.78;;;3.33;;
19149;SDS011;9707;49.158;8.632;2023-04-15T09:50:51;6.13;;;3.17;;
19149;SDS011;9707;49.158;8.632;2023-04-15T09:53:18;5.15;;;3.33;;
19149;SDS011;9707;49.158;8.632;2023-04-15T09:55:48;7.82;;;3.83;;
19149;SDS011;9707;49.158;8.632;2023-04-15T09:58:21;6.28;;;4.07;;
19149;SDS011;9707;49.158;8.632;2023-04-15T10:00:47;6.40;;;3.28;;
19149;SDS011;9707;49.158;8.632;2023-04-15T10:03:20;5.50;;;3.05;;
19149;SDS011;9707;49.158;8.632;2023-04-15T10:05:48;7.90;;;3.90;;
19149;SDS011;9707;49.158;8.632;2023-04-15T10:08:18;7.85;;;3.60;;
19149;SDS011;9707;49.158;8.632;2023-04-15T10:10:46;6.78;;;3.40;;
19149;SDS011;9707;49.158;8.632;2023-04-15T10:13:16;4.07;;;2.55;;
19149;SDS011;9707;49.158;8.632;2023-04-15T10:15:44;4.28;;;2.50;;
19149;SDS011;9707;49.158;8.632;2023-04-15T10:18:13;5.70;;;2.95;;
19149;SDS011;9707;49.158;8.632;2023-04-15T10:20:40;5.22;;;2.67;;
19149;SDS011;9707;49.158;8.632;2023-04-15T10:23:07;6.75;;;3.00;;
19149;SDS011;9707;49.158;8.632;2023-04-15T10:25:33;4.65;;;2.85;;
19149;SDS011;9707;49.158;8.632;2023-04-15T10:27:58;4.90;;;2.45;;
19149;SDS011;9707;49.158;8.632;2023-04-15T10:30:24;6.90;;;3.22;;
19149;SDS011;9707;49.158;8.632;2023-04-15T10:32:50;5.35;;;3.13;;
19149;SDS011;9707;49.158;8.632;2023-04-15T10:35:16;6.15;;;3.28;;
19149;SDS011;9707;49.158;8.632;2023-04-15T10:37:42;6.25;;;3.60;;
19149;SDS011;9707;49.158;8.632;2023-04-15T10:42:55;3.90;;;3.20;;
19149;SDS011;9707;49.158;8.632;2023-04-15T10:45:20;5.32;;;3.25;;
19149;SDS011;9707;49.158;8.632;2023-04-15T10:47:50;5.53;;;4.00;;
19149;SDS011;9707;49.158;8.632;2023-04-15T10:50:17;5.95;;;3.33;;
19149;SDS011;9707;49.158;8.632;2023-04-15T10:52:43;5.15;;;3.42;;
19149;SDS011;9707;49.158;8.632;2023-04-15T10:55:19;5.78;;;3.40;;
19149;SDS011;9707;49.158;8.632;2023-04-15T10:57:46;5.60;;;3.30;;
19149;SDS011;9707;49.158;8.632;2023-04-15T11:00:17;7.95;;;2.92;;
19149;SDS011;9707;49.158;8.632;2023-04-15T11:02:45;4.60;;;3.10;;
19149;SDS011;9707;49.158;8.632;2023-04-15T11:06:06;3.80;;;2.25;;
19149;SDS011;9707;49.158;8.632;2023-04-15T11:08:06;4.53;;;2.20;;
19149;SDS011;9707;49.158;8.632;2023-04-15T11:15:44;5.50;;;2.47;;
19149;SDS011;9707;49.158;8.632;2023-04-15T11:18:11;8.85;;;2.92;;
19149;SDS011;9707;49.158;8.632;2023-04-15T11:20:51;5.22;;;2.45;;
19149;SDS011;9707;49.158;8.632;2023-04-15T11:23:19;2.88;;;2.25;;
19149;SDS011;9707;49.158;8.632;2023-04-15T11:25:55;3.22;;;2.45;;
19149;SDS011;9707;49.158;8.632;2023-04-15T11:28:23;4.20;;;2.70;;
19149;SDS011;9707;49.158;8.632;2023-04-15T11:30:50;5.75;;;2.50;;
19149;SDS011;9707;49.158;8.632;2023-04-15T11:33:16;5.30;;;2.78;;
19149;SDS011;9707;49.158;8.632;2023-04-15T11:35:41;4.78;;;2.45;;
19149;SDS011;9707;49.158;8.632;2023-04-15T11:38:08;3.80;;;2.30;;
19149;SDS011;9707;49.158;8.632;2023-04-15T11:40:35;4.47;;;2.28;;
19149;SDS011;9707;49.158;8.632;2023-04-15T11:45:37;5.05;;;2.78;;
19149;SDS011;9707;49.158;8.632;2023-04-15T11:48:12;2.65;;;2.28;;
19149;SDS011;9707;49.158;8.632;2023-04-15T11:50:39;4.05;;;2.80;;
19149;SDS011;9707;49.158;8.632;2023-04-15T11:53:05;4.65;;;3.53;;
19149;SDS011;9707;49.158;8.632;2023-04-15T11:55:42;3.50;;;2.67;;
19149;SDS011;9707;49.158;8.632;2023-04-15T12:03:29;3.28;;;2.40;;
19149;SDS011;9707;49.158;8.632;2023-04-15T12:06:08;6.65;;;3.20;;
19149;SDS011;9707;49.158;8.632;2023-04-15T12:13:52;3.63;;;1.75;;
19149;SDS011;9707;49.158;8.632;2023-04-15T12:16:33;4.28;;;2.08;;
19149;SDS011;9707;49.158;8.632;2023-04-15T12:19:03;4.35;;;1.80;;
19149;SDS011;9707;49.158;8.632;2023-04-15T12:21:32;3.83;;;1.80;;
19149;SDS011;9707;49.158;8.632;2023-04-15T12:24:00;4.07;;;1.75;;
19149;SDS011;9707;49.158;8.632;2023-04-15T12:26:28;1.63;;;1.50;;
19149;SDS011;9707;49.158;8.632;2023-04-15T12:29:09;3.55;;;1.52;;
19149;SDS011;9707;49.158;8.632;2023-04-15T12:31:35;2.80;;;1.13;;
19149;SDS011;9707;49.158;8.632;2023-04-15T12:34:01;3.00;;;1.77;;
19149;SDS011;9707;49.158;8.632;2023-04-15T12:36:31;4.32;;;1.58;;
19149;SDS011;9707;49.158;8.632;2023-04-15T12:39:02;3.75;;;1.63;;
19149;SDS011;9707;49.158;8.632;2023-04-15T12:41:29;3.78;;;1.50;;
19149;SDS011;9707;49.158;8.632;2023-04-15T12:43:54;2.00;;;1.30;;
19149;SDS011;9707;49.158;8.632;2023-04-15T12:46:20;1.90;;;1.30;;
19149;SDS011;9707;49.158;8.632;2023-04-15T12:48:45;2.50;;;1.10;;
19149;SDS011;9707;49.158;8.632;2023-04-15T12:51:15;3.40;;;1.40;;
19149;SDS011;9707;49.158;8.632;2023-04-15T12:53:40;1.58;;;1.27;;
19149;SDS011;9707;49.158;8.632;2023-04-15T12:56:05;3.10;;;1.50;;
19149;SDS011;9707;49.158;8.632;2023-04-15T12:58:31;3.53;;;1.55;;
19149;SDS011;9707;49.158;8.632;2023-04-15T13:00:59;5.05;;;1.42;;
19149;SDS011;9707;49.158;8.632;2023-04-15T13:03:25;2.78;;;1.45;;
19149;SDS011;9707;49.158;8.632;2023-04-15T13:05:50;5.40;;;1.60;;
19149;SDS011;9707;49.158;8.632;2023-04-15T13:08:16;3.60;;;1.33;;
19149;SDS011;9707;49.158;8.632;2023-04-15T13:10:41;1.70;;;1.15;;
19149;SDS011;9707;49.158;8.632;2023-04-15T13:13:07;4.15;;;1.60;;
19149;SDS011;9707;49.158;8.632;2023-04-15T13:15:32;2.75;;;1.33;;
19149;SDS011;9707;49.158;8.632;2023-04-15T13:17:58;4.20;;;1.30;;
19149;SDS011;9707;49.158;8.632;2023-04-15T13:20:23;2.20;;;1.48;;
19149;SDS011;9707;49.158;8.632;2023-04-15T13:22:51;1.80;;;1.42;;
19149;SDS011;9707;49.158;8.632;2023-04-15T13:25:16;3.15;;;1.25;;
19149;SDS011;9707;49.158;8.632;2023-04-15T13:27:41;6.03;;;2.03;;
19149;SDS011;9707;49.158;8.632;2023-04-15T13:30:07;4.15;;;1.85;;
19149;SDS011;9707;49.158;8.632;2023-04-15T13:32:33;4.47;;;1.63;;
19149;SDS011;9707;49.158;8.632;2023-04-15T13:34:58;5.30;;;2.40;;
19149;SDS011;9707;49.158;8.632;2023-04-15T13:37:26;2.08;;;1.40;;
19149;SDS011;9707;49.158;8.632;2023-04-15T13:39:52;2.72;;;1.58;;
19149;SDS011;9707;49.158;8.632;2023-04-15T13:42:18;2.35;;;1.30;;
19149;SDS011;9707;49.158;8.632;2023-04-15T13:44:44;3.15;;;1.95;;
19149;SDS011;9707;49.158;8.632;2023-04-15T13:47:09;4.30;;;2.00;;
19149;SDS011;9707;49.158;8.632;2023-04-15T13:49:35;3.78;;;1.70;;
19149;SDS011;9707;49.158;8.632;2023-04-15T13:52:00;3.97;;;1.55;;
19149;SDS011;9707;49.158;8.632;2023-04-15T13:54:25;6.05;;;2.00;;
19149;SDS011;9707;49.158;8.632;2023-04-15T13:56:50;4.25;;;1.80;;
19149;SDS011;9707;49.158;8.632;2023-04-15T13:59:16;3.00;;;1.90;;
19149;SDS011;9707;49.158;8.632;2023-04-15T14:01:41;3.70;;;1.70;;
19149;SDS011;9707;49.158;8.632;2023-04-15T14:04:07;2.45;;;1.63;;
19149;SDS011;9707;49.158;8.632;2023-04-15T14:06:32;3.25;;;1.30;;
19149;SDS011;9707;49.158;8.632;2023-04-15T14:08:58;3.20;;;1.30;;
19149;SDS011;9707;49.158;8.632;2023-04-15T14:11:23;3.40;;;1.70;;
19149;SDS011;9707;49.158;8.632;2023-04-15T14:13:48;3.45;;;1.60;;
19149;SDS011;9707;49.158;8.632;2023-04-15T14:16:13;4.25;;;1.17;;
19149;SDS011;9707;49.158;8.632;2023-04-15T14:18:39;0.98;;;0.65;;
19149;SDS011;9707;49.158;8.632;2023-04-15T14:21:04;2.10;;;1.17;;
19149;SDS011;9707;49.158;8.632;2023-04-15T14:23:31;1.77;;;1.08;;
19149;SDS011;9707;49.158;8.632;2023-04-15T14:25:56;3.15;;;1.30;;
19149;SDS011;9707;49.158;8.632;2023-04-15T14:28:21;2.58;;;1.05;;
19149;SDS011;9707;49.158;8.632;2023-04-15T14:30:46;2.63;;;1.00;;
19149;SDS011;9707;49.158;8.632;2023-04-15T14:33:12;5.57;;;1.70;;
19149;SDS011;9707;49.158;8.632;2023-04-15T14:35:37;2.95;;;0.93;;
19149;SDS011;9707;49.158;8.632;2023-04-15T14:38:03;3.85;;;1.27;;
19149;SDS011;9707;49.158;8.632;2023-04-15T14:40:29;3.10;;;0.77;;
19149;SDS011;9707;49.158;8.632;2023-04-15T14:42:55;1.30;;;0.80;;
19149;SDS011;9707;49.158;8.632;2023-04-15T14:45:20;1.75;;;1.40;;
19149;SDS011;9707;49.158;8.632;2023-04-15T14:47:45;4.70;;;1.35;;
19149;SDS011;9707;49.158;8.632;2023-04-15T14:50:11;0.90;;;0.60;;
19149;SDS011;9707;49.158;8.632;2023-04-15T14:52:36;1.55;;;0.90;;
19149;SDS011;9707;49.158;8.632;2023-04-15T14:55:05;3.10;;;0.80;;
19149;SDS011;9707;49.158;8.632;2023-04-15T14:57:34;1.77;;;1.08;;
19149;SDS011;9707;49.158;8.632;2023-04-15T15:00:00;1.48;;;1.08;;
19149;SDS011;9707;49.158;8.632;2023-04-15T15:02:25;1.80;;;0.88;;
19149;SDS011;9707;49.158;8.632;2023-04-15T15:04:50;1.52;;;0.77;;
19149;SDS011;9707;49.158;8.632;2023-04-15T15:07:16;1.17;;;0.88;;
19149;SDS011;9707;49.158;8.632;2023-04-15T15:09:41;2.03;;;0.70;;
19149;SDS011;9707;49.158;8.632;2023-04-15T15:12:06;1.83;;;1.00;;
19149;SDS011;9707;49.158;8.632;2023-04-15T15:14:31;2.53;;;0.90;;
19149;SDS011;9707;49.158;8.632;2023-04-15T15:16:57;1.20;;;0.82;;